hwlogo.jpg (8581 bytes)
Home Your Weather Products Services Weather On Your Site Contact
HW Version Logo
Weather Info
Your Weather (Options)
Canadian Weather
International Weather
Enter your " Place, State", US Zip Code or ICAO:  
Forecast Information Radar Information
Kuujjuaq, Québec, Canada  Lat: 58.10N, Lon: 68.42W
ICAO Used: CYPH
Current Conditions
Updated: 1:41 PM EST THU FEB 22 2018
Sun & Moon Information
Hazy
Hazy
Temp: -25°C
Humidity: 76%
Wind Speed: SSW 10 MPH
Barometer: 1024 mb
Dewpoint: -28°C
Heat Index: -25°C
Wind Chill: -36°C
Civil Twilight: 6:11 AM EST Moon Phase:
Waxing Gibbous Moon
Sunrise: 6:51 AM EST
Sunset: 4:43 PM EST
Civil Twilight: 5:23 PM EST
Forecast for Kuujjuaq, QC:
(Forecast based on TAF for )
0100 PM EST THU FEB 22 2018
  
AFTERNOON EVENING OVERNIGHT
Partly
Cloudy
Fair Fair
ZoneCast:
Dated: 0100 PM EST THU FEB 22 2018
Afternoon...Partly cloudy with winds from the southsouthwest at 14 mph.

Evening...Partly cloudy with winds from the southsouthwest at 14 mph. Becoming fair with winds from the southsoutheast at 9 mph.

Overnight...Fair with winds from the southsoutheast at 9 mph. Turning mostly cloudy with winds from the east at 7 mph.

Original Encoded TAF:
Dated: 0100 PM EST THU FEB 22 2018
2018/02/22 18:00
TAF CYPH 201738Z 2018/2106 24012KT P6SM FEW020 
      BECMG 2022/2024 20008KT 
     FM210300 10006KT P6SM BKN220 
      RMK FCST BASED ON AUTO OBS. NXT FCST BY 210000Z